Time,TemperatureF,DewpointF,PressureIn,WindDirection,WindDirectionDegrees,WindSpeedMPH,WindSpeedGustMPH,Humidity,HourlyPrecipIn,Conditions,Clouds,dailyrainin,SoftwareType,DateUTC
2013-02-28 00:06:00,61.2,-27.8,30.17,NNE,22,0.0,-999.0,2,-99.99,,,0.00,Acu-Link.com,2013-02-28 08:06:00,
2013-02-28 00:21:00,61.0,-28.0,30.18,NNW,337,1.1,-999.0,2,-99.99,,,0.00,Acu-Link.com,2013-02-28 08:21:00,
2013-02-28 00:37:00,61.0,-28.0,30.17,NNE,22,0.0,-999.0,2,-99.99,,,0.00,Acu-Link.com,2013-02-28 08:37:00,
2013-02-28 00:52:00,60.3,-15.3,30.18,North,0,5.3,-999.0,4,-99.99,,,0.00,Acu-Link.com,2013-02-28 08:52:00,
2013-02-28 01:19:00,60.6,-15.1,30.18,NNE,22,9.4,-999.0,4,-99.99,,,0.00,Acu-Link.com,2013-02-28 09:19:00,
2013-02-28 01:34:00,61.3,-20.2,30.18,NNE,22,14.0,-999.0,3,-99.99,,,0.00,Acu-Link.com,2013-02-28 09:34:00,
2013-02-28 01:49:00,60.6,-15.1,30.18,North,0,8.3,-999.0,4,-99.99,,,0.00,Acu-Link.com,2013-02-28 09:49:00,
2013-02-28 02:04:00,59.9,-11.2,30.17,NE,45,13.0,-999.0,5,-99.99,,,0.00,Acu-Link.com,2013-02-28 10:04:00,
2013-02-28 02:19:00,60.3,-10.9,30.17,NNE,22,2.2,-999.0,5,-99.99,,,0.00,Acu-Link.com,2013-02-28 10:19:00,
2013-02-28 02:34:00,60.8,-15.0,30.16,East,90,9.9,-999.0,4,-99.99,,,0.00,Acu-Link.com,2013-02-28 10:34:00,
2013-02-28 02:49:00,60.8,-20.5,30.16,NNW,337,13.5,-999.0,3,-99.99,,,0.00,Acu-Link.com,2013-02-28 10:49:00,
2013-02-28 03:05:00,59.9,-15.6,30.16,NNE,22,5.3,-999.0,4,-99.99,,,0.00,Acu-Link.com,2013-02-28 11:05:00,
2013-02-28 03:20:00,60.1,-15.5,30.17,NE,45,12.5,-999.0,4,-99.99,,,0.00,Acu-Link.com,2013-02-28 11:20:00,
2013-02-28 03:35:00,59.5,-15.9,30.17,North,0,8.3,-999.0,4,-99.99,,,0.00,Acu-Link.com,2013-02-28 11:35:00,
2013-02-28 03:50:00,59.4,-15.9,30.17,NNE,22,16.1,-999.0,4,-99.99,,,0.00,Acu-Link.com,2013-02-28 11:50:00,
2013-02-28 04:05:00,58.8,-16.4,30.17,NNE,22,1.1,-999.0,4,-99.99,,,0.00,Acu-Link.com,2013-02-28 12:05:00,
2013-02-28 04:20:00,59.5,-15.9,30.17,NNE,22,4.7,-999.0,4,-99.99,,,0.00,Acu-Link.com,2013-02-28 12:20:00,
2013-02-28 04:35:00,59.2,-16.1,30.18,NNE,22,2.2,-999.0,4,-99.99,,,0.00,Acu-Link.com,2013-02-28 12:35:00,
2013-02-28 04:50:00,58.8,-16.4,30.18,NE,45,4.2,-999.0,4,-99.99,,,0.00,Acu-Link.com,2013-02-28 12:50:00,
2013-02-28 05:06:00,59.0,-16.2,30.17,NNE,22,5.3,-999.0,4,-99.99,,,0.00,Acu-Link.com,2013-02-28 13:06:00,
2013-02-28 05:21:00,59.2,-16.1,30.18,NNE,22,8.9,-999.0,4,-99.99,,,0.00,Acu-Link.com,2013-02-28 13:21:00,
2013-02-28 05:36:00,59.9,-21.1,30.18,North,0,15.0,-999.0,3,-99.99,,,0.00,Acu-Link.com,2013-02-28 13:36:00,
2013-02-28 05:51:00,60.3,-28.4,30.19,NNW,337,1.7,-999.0,2,-99.99,,,0.00,Acu-Link.com,2013-02-28 13:51:00,
2013-02-28 06:07:00,60.1,-28.6,30.20,NNE,22,7.3,-999.0,2,-99.99,,,0.00,Acu-Link.com,2013-02-28 14:07:00,
2013-02-28 06:22:00,60.3,-28.4,30.19,NNW,337,5.3,-999.0,2,-99.99,,,0.00,Acu-Link.com,2013-02-28 14:22:00,
2013-02-28 06:37:00,60.3,-28.4,30.19,NNE,22,2.2,-999.0,2,-99.99,,,0.00,Acu-Link.com,2013-02-28 14:37:00,
2013-02-28 06:52:00,60.8,-28.1,30.20,NNW,337,8.3,-999.0,2,-99.99,,,0.00,Acu-Link.com,2013-02-28 14:52:00,
2013-02-28 07:07:00,62.1,-39.6,30.19,NE,45,6.3,-999.0,1,-99.99,,,0.00,Acu-Link.com,2013-02-28 15:07:00,
2013-02-28 07:22:00,62.2,-19.6,30.20,NNE,22,2.7,-999.0,3,-99.99,,,0.00,Acu-Link.com,2013-02-28 15:22:00,
2013-02-28 07:38:00,63.1,-39.0,30.20,NNE,22,17.6,-999.0,1,-99.99,,,0.00,Acu-Link.com,2013-02-28 15:38:00,
2013-02-28 07:53:00,64.2,-38.3,30.20,North,0,13.0,-999.0,1,-99.99,,,0.00,Acu-Link.com,2013-02-28 15:53:00,
2013-02-28 08:08:00,64.8,-37.9,30.19,NNE,22,13.0,-999.0,1,-99.99,,,0.00,Acu-Link.com,2013-02-28 16:08:00,
2013-02-28 08:23:00,65.5,-37.5,30.19,NNE,22,6.3,-999.0,0,-99.99,,,0.00,Acu-Link.com,2013-02-28 16:23:00,
2013-02-28 08:38:00,66.4,-37.0,30.20,NNW,337,11.4,-999.0,0,-99.99,,,0.00,Acu-Link.com,2013-02-28 16:38:00,
2013-02-28 08:53:00,67.5,-36.3,30.19,ENE,67,14.5,-999.0,0,-99.99,,,0.00,Acu-Link.com,2013-02-28 16:53:00,
2013-02-28 09:08:00,69.1,-35.4,30.21,NNE,22,10.4,-999.0,0,-99.99,,,0.00,Acu-Link.com,2013-02-28 17:08:00,
2013-02-28 09:23:00,69.1,-35.4,30.20,NE,45,7.8,-999.0,0,-99.99,,,0.00,Acu-Link.com,2013-02-28 17:23:00,
2013-02-28 09:38:00,69.8,-34.9,30.21,NE,45,15.0,-999.0,0,-99.99,,,0.00,Acu-Link.com,2013-02-28 17:38:00,
2013-02-28 09:53:00,70.7,-34.4,30.21,NE,45,2.7,-999.0,0,-99.99,,,0.00,Acu-Link.com,2013-02-28 17:53:00,
2013-02-28 10:08:00,71.1,-34.2,30.21,NNE,22,8.3,-999.0,0,-99.99,,,0.00,Acu-Link.com,2013-02-28 18:08:00,
2013-02-28 10:23:00,72.5,-33.3,30.20,NNE,22,5.8,-999.0,0,-99.99,,,0.00,Acu-Link.com,2013-02-28 18:23:00,
2013-02-28 10:38:00,73.8,-32.5,30.21,NNE,22,3.2,-999.0,0,-99.99,,,0.00,Acu-Link.com,2013-02-28 18:38:00,
2013-02-28 10:54:00,74.3,-32.2,30.20,NNE,22,8.9,-999.0,0,-99.99,,,0.00,Acu-Link.com,2013-02-28 18:54:00,
2013-02-28 11:09:00,75.4,-31.6,30.21,North,0,0.0,-999.0,0,-99.99,,,0.00,Acu-Link.com,2013-02-28 19:09:00,
2013-02-28 11:24:00,76.6,-30.9,30.20,NNE,22,6.3,-999.0,0,-99.99,,,0.00,Acu-Link.com,2013-02-28 19:24:00,
2013-02-28 11:39:00,77.4,-30.4,30.19,NNE,22,0.0,-999.0,0,-99.99,,,0.00,Acu-Link.com,2013-02-28 19:39:00,
2013-02-28 11:55:00,76.6,-30.9,30.19,East,90,7.3,-999.0,0,-99.99,,,0.00,Acu-Link.com,2013-02-28 19:55:00,
2013-02-28 12:10:00,75.9,-31.3,30.18,NNE,22,5.8,-999.0,0,-99.99,,,0.00,Acu-Link.com,2013-02-28 20:10:00,
2013-02-28 12:25:00,77.4,-30.4,30.17,NNW,337,5.8,-999.0,0,-99.99,,,0.00,Acu-Link.com,2013-02-28 20:25:00,
2013-02-28 12:40:00,77.0,-30.6,30.16,NE,45,11.4,-999.0,0,-99.99,,,0.00,Acu-Link.com,2013-02-28 20:40:00,
2013-02-28 12:55:00,77.7,-30.2,30.16,NNE,22,6.8,-999.0,0,-99.99,,,0.00,Acu-Link.com,2013-02-28 20:55:00,
2013-02-28 13:10:00,77.2,-30.5,30.15,North,0,0.0,-999.0,0,-99.99,,,0.00,Acu-Link.com,2013-02-28 21:10:00,
2013-02-28 13:25:00,77.5,-30.3,30.15,NNE,22,6.8,-999.0,0,-99.99,,,0.00,Acu-Link.com,2013-02-28 21:25:00,
2013-02-28 13:41:00,78.4,-29.8,30.15,NNE,22,10.9,-999.0,0,-99.99,,,0.00,Acu-Link.com,2013-02-28 21:41:00,
2013-02-28 13:56:00,77.7,-30.2,30.15,NE,45,4.2,-999.0,0,-99.99,,,0.00,Acu-Link.com,2013-02-28 21:56:00,
2013-02-28 14:11:00,78.1,-30.0,30.14,NNE,22,4.2,-999.0,0,-99.99,,,0.00,Acu-Link.com,2013-02-28 22:11:00,
2013-02-28 14:27:00,78.4,-29.8,30.14,NNE,22,13.0,-999.0,0,-99.99,,,0.00,Acu-Link.com,2013-02-28 22:27:00,
2013-02-28 14:42:00,78.1,-30.0,30.13,North,0,6.8,-999.0,0,-99.99,,,0.00,Acu-Link.com,2013-02-28 22:42:00,
2013-02-28 14:57:00,77.4,-30.4,30.14,NNE,22,6.8,-999.0,0,-99.99,,,0.00,Acu-Link.com,2013-02-28 22:57:00,
2013-02-28 15:13:00,78.1,-30.0,30.13,NNE,22,10.9,-999.0,0,-99.99,,,0.00,Acu-Link.com,2013-02-28 23:13:00,
2013-02-28 15:28:00,78.4,-29.8,30.13,NNE,22,1.7,-999.0,0,-99.99,,,0.00,Acu-Link.com,2013-02-28 23:28:00,
2013-02-28 15:43:00,78.4,-29.8,30.13,NE,45,11.4,-999.0,0,-99.99,,,0.00,Acu-Link.com,2013-02-28 23:43:00,
2013-02-28 15:58:00,78.6,-29.7,30.13,NE,45,6.3,-999.0,0,-99.99,,,0.00,Acu-Link.com,2013-02-28 23:58:00,
2013-02-28 16:14:00,77.7,-30.2,30.12,NE,45,1.7,-999.0,0,-99.99,,,0.00,Acu-Link.com,2013-03-01 00:14:00,
2013-02-28 16:29:00,77.5,-30.3,30.12,NE,45,6.8,-999.0,0,-99.99,,,0.00,Acu-Link.com,2013-03-01 00:29:00,
2013-02-28 16:44:00,77.0,-30.6,30.13,East,90,1.7,-999.0,0,-99.99,,,0.00,Acu-Link.com,2013-03-01 00:44:00,
2013-02-28 16:59:00,76.3,-31.0,30.13,NE,45,0.0,-999.0,0,-99.99,,,0.00,Acu-Link.com,2013-03-01 00:59:00,
2013-02-28 17:15:00,75.6,-31.5,30.13,North,0,4.7,-999.0,0,-99.99,,,0.00,Acu-Link.com,2013-03-01 01:15:00,
2013-02-28 17:30:00,74.5,-32.1,30.14,NNE,22,0.0,-999.0,0,-99.99,,,0.00,Acu-Link.com,2013-03-01 01:30:00,
2013-02-28 17:45:00,73.2,-32.9,30.14,NNE,22,0.0,-999.0,0,-99.99,,,0.00,Acu-Link.com,2013-03-01 01:45:00,
2013-02-28 18:01:00,71.4,-34.0,30.15,North,0,0.0,-999.0,0,-99.99,,,0.00,Acu-Link.com,2013-03-01 02:01:00,
2013-02-28 18:16:00,70.3,-34.6,30.16,North,0,0.0,-999.0,0,-99.99,,,0.00,Acu-Link.com,2013-03-01 02:16:00,
2013-02-28 18:31:00,68.9,7.8,30.16,NNE,22,0.0,-999.0,9,-99.99,,,0.00,Acu-Link.com,2013-03-01 02:31:00,
2013-02-28 18:46:00,68.0,7.1,30.16,WNW,292,0.0,-999.0,9,-99.99,,,0.00,Acu-Link.com,2013-03-01 02:46:00,
2013-02-28 19:02:00,67.5,-2.0,30.17,NNW,337,0.0,-999.0,6,-99.99,,,0.00,Acu-Link.com,2013-03-01 03:02:00,
2013-02-28 19:17:00,68.2,-35.9,30.17,NNE,22,0.0,-999.0,1,-99.99,,,0.00,Acu-Link.com,2013-03-01 03:17:00,
2013-02-28 19:32:00,68.0,-36.0,30.18,NNE,22,0.0,-999.0,1,-99.99,,,0.00,Acu-Link.com,2013-03-01 03:32:00,
2013-02-28 19:48:00,67.5,-36.3,30.18,NNE,22,0.0,-999.0,1,-99.99,,,0.00,Acu-Link.com,2013-03-01 03:48:00,
2013-02-28 20:03:00,67.6,-36.3,30.18,NNW,337,0.0,-999.0,1,-99.99,,,0.00,Acu-Link.com,2013-03-01 04:03:00,
2013-02-28 20:18:00,67.3,-36.4,30.19,West,270,0.0,-999.0,1,-99.99,,,0.00,Acu-Link.com,2013-03-01 04:18:00,
2013-02-28 20:34:00,66.4,-16.8,30.20,North,0,0.0,-999.0,3,-99.99,,,0.00,Acu-Link.com,2013-03-01 04:34:00,
2013-02-28 20:49:00,65.3,-17.5,30.20,NNE,22,0.0,-999.0,3,-99.99,,,0.00,Acu-Link.com,2013-03-01 04:49:00,
2013-02-28 21:04:00,64.9,-17.8,30.20,North,0,0.0,-999.0,3,-99.99,,,0.00,Acu-Link.com,2013-03-01 05:04:00,
2013-02-28 21:19:00,64.2,-4.4,30.20,NNW,337,0.0,-999.0,6,-99.99,,,0.00,Acu-Link.com,2013-03-01 05:19:00,
2013-02-28 21:35:00,63.7,-8.5,30.20,NNE,22,0.0,-999.0,5,-99.99,,,0.00,Acu-Link.com,2013-03-01 05:35:00,
2013-02-28 21:50:00,65.1,-7.5,30.21,NE,45,0.0,-999.0,5,-99.99,,,0.00,Acu-Link.com,2013-03-01 05:50:00,
2013-02-28 22:05:00,64.6,-4.1,30.21,NNE,22,0.0,-999.0,6,-99.99,,,0.00,Acu-Link.com,2013-03-01 06:05:00,
2013-02-28 22:21:00,66.0,-6.8,30.21,NNW,337,0.0,-999.0,5,-99.99,,,0.00,Acu-Link.com,2013-03-01 06:21:00,
2013-02-28 22:36:00,66.4,0.5,30.20,NE,45,0.0,-999.0,7,-99.99,,,0.00,Acu-Link.com,2013-03-01 06:36:00,
2013-02-28 22:52:00,66.7,3.6,30.20,NNW,337,0.0,-999.0,8,-99.99,,,0.00,Acu-Link.com,2013-03-01 06:52:00,
2013-02-28 23:07:00,66.2,5.7,30.19,NE,45,2.7,-999.0,9,-99.99,,,0.00,Acu-Link.com,2013-03-01 07:07:00,
2013-02-28 23:22:00,66.7,0.7,30.19,East,90,0.0,-999.0,7,-99.99,,,0.00,Acu-Link.com,2013-03-01 07:22:00,
2013-02-28 23:49:00,67.1,-2.3,30.20,NE,45,7.8,-999.0,6,-99.99,,,0.00,Acu-Link.com,2013-03-01 07:49:00,